sensor_id;sensor_type;location;lat;lon;timestamp;temperature;humidity
75190;HTU21D;69198;44.694;37.790;2024-03-02T00:01:00;10.51;36.23
75190;HTU21D;69198;44.694;37.790;2024-03-02T00:02:01;10.50;36.29
75190;HTU21D;69198;44.694;37.790;2024-03-02T00:03:02;10.50;36.28
75190;HTU21D;69198;44.694;37.790;2024-03-02T00:04:07;10.49;36.29
75190;HTU21D;69198;44.694;37.790;2024-03-02T00:05:11;10.48;36.27
75190;HTU21D;69198;44.694;37.790;2024-03-02T00:06:12;10.48;36.27
75190;HTU21D;69198;44.694;37.790;2024-03-02T00:07:14;10.49;36.19
75190;HTU21D;69198;44.694;37.790;2024-03-02T00:08:20;10.53;36.09
75190;HTU21D;69198;44.694;37.790;2024-03-02T00:09:23;10.57;36.06
75190;HTU21D;69198;44.694;37.790;2024-03-02T00:10:37;10.64;35.93
75190;HTU21D;69198;44.694;37.790;2024-03-02T00:11:40;10.64;35.89
75190;HTU21D;69198;44.694;37.790;2024-03-02T00:12:41;10.68;35.86
75190;HTU21D;69198;44.694;37.790;2024-03-02T00:13:42;10.69;35.79
75190;HTU21D;69198;44.694;37.790;2024-03-02T00:14:44;10.70;35.68
75190;HTU21D;69198;44.694;37.790;2024-03-02T00:15:54;10.71;35.63
75190;HTU21D;69198;44.694;37.790;2024-03-02T00:16:55;10.69;35.66
75190;HTU21D;69198;44.694;37.790;2024-03-02T00:17:57;10.70;35.63
75190;HTU21D;69198;44.694;37.790;2024-03-02T00:19:03;10.69;35.60
75190;HTU21D;69198;44.694;37.790;2024-03-02T00:20:09;10.67;35.63
75190;HTU21D;69198;44.694;37.790;2024-03-02T00:21:11;10.63;35.65
75190;HTU21D;69198;44.694;37.790;2024-03-02T00:22:13;10.59;35.61
75190;HTU21D;69198;44.694;37.790;2024-03-02T00:23:16;10.60;35.60
75190;HTU21D;69198;44.694;37.790;2024-03-02T00:24:21;10.58;35.60
75190;HTU21D;69198;44.694;37.790;2024-03-02T00:25:22;10.54;35.63
75190;HTU21D;69198;44.694;37.790;2024-03-02T00:26:23;10.51;35.65
75190;HTU21D;69198;44.694;37.790;2024-03-02T00:27:26;10.49;35.67
75190;HTU21D;69198;44.694;37.790;2024-03-02T00:28:31;10.49;35.61
75190;HTU21D;69198;44.694;37.790;2024-03-02T00:29:35;10.48;35.64
75190;HTU21D;69198;44.694;37.790;2024-03-02T00:31:58;10.43;35.75
75190;HTU21D;69198;44.694;37.790;2024-03-02T00:33:01;10.44;35.70
75190;HTU21D;69198;44.694;37.790;2024-03-02T00:34:05;10.43;35.69
75190;HTU21D;69198;44.694;37.790;2024-03-02T00:35:06;10.42;35.69
75190;HTU21D;69198;44.694;37.790;2024-03-02T00:36:07;10.40;35.66
75190;HTU21D;69198;44.694;37.790;2024-03-02T00:37:09;10.41;35.61
75190;HTU21D;69198;44.694;37.790;2024-03-02T00:38:10;10.42;35.61
75190;HTU21D;69198;44.694;37.790;2024-03-02T00:39:12;10.43;35.63
75190;HTU21D;69198;44.694;37.790;2024-03-02T00:40:16;10.41;35.64
75190;HTU21D;69198;44.694;37.790;2024-03-02T00:41:28;10.42;35.62
75190;HTU21D;69198;44.694;37.790;2024-03-02T00:42:31;10.39;35.69
75190;HTU21D;69198;44.694;37.790;2024-03-02T00:43:47;10.38;35.73
75190;HTU21D;69198;44.694;37.790;2024-03-02T00:44:49;10.35;35.82
75190;HTU21D;69198;44.694;37.790;2024-03-02T00:45:50;10.35;35.86
75190;HTU21D;69198;44.694;37.790;2024-03-02T00:46:51;10.31;35.90
75190;HTU21D;69198;44.694;37.790;2024-03-02T00:47:53;10.31;35.94
75190;HTU21D;69198;44.694;37.790;2024-03-02T00:48:59;10.29;36.02
75190;HTU21D;69198;44.694;37.790;2024-03-02T00:50:00;10.26;36.09
75190;HTU21D;69198;44.694;37.790;2024-03-02T00:51:02;10.24;36.13
75190;HTU21D;69198;44.694;37.790;2024-03-02T00:52:07;10.21;36.21
75190;HTU21D;69198;44.694;37.790;2024-03-02T00:53:11;10.19;36.27
75190;HTU21D;69198;44.694;37.790;2024-03-02T00:54:13;10.18;36.31
75190;HTU21D;69198;44.694;37.790;2024-03-02T00:55:15;10.16;36.34
75190;HTU21D;69198;44.694;37.790;2024-03-02T00:56:16;10.16;36.34
75190;HTU21D;69198;44.694;37.790;2024-03-02T00:57:17;10.14;36.40
75190;HTU21D;69198;44.694;37.790;2024-03-02T00:58:18;10.15;36.39
75190;HTU21D;69198;44.694;37.790;2024-03-02T00:59:19;10.14;36.40
75190;HTU21D;69198;44.694;37.790;2024-03-02T01:00:20;10.14;36.41
75190;HTU21D;69198;44.694;37.790;2024-03-02T01:01:21;10.13;36.43
75190;HTU21D;69198;44.694;37.790;2024-03-02T01:02:22;10.14;36.47
75190;HTU21D;69198;44.694;37.790;2024-03-02T01:03:23;10.16;36.46
75190;HTU21D;69198;44.694;37.790;2024-03-02T01:04:25;10.15;36.43
75190;HTU21D;69198;44.694;37.790;2024-03-02T01:05:26;10.15;36.46
75190;HTU21D;69198;44.694;37.790;2024-03-02T01:06:27;10.15;36.50
75190;HTU21D;69198;44.694;37.790;2024-03-02T01:07:28;10.16;36.52
75190;HTU21D;69198;44.694;37.790;2024-03-02T01:08:29;10.15;36.55
75190;HTU21D;69198;44.694;37.790;2024-03-02T01:09:30;10.16;36.56
75190;HTU21D;69198;44.694;37.790;2024-03-02T01:10:31;10.16;36.55
75190;HTU21D;69198;44.694;37.790;2024-03-02T01:11:32;10.18;36.58
75190;HTU21D;69198;44.694;37.790;2024-03-02T01:12:33;10.16;36.58
75190;HTU21D;69198;44.694;37.790;2024-03-02T01:13:34;10.15;36.61
75190;HTU21D;69198;44.694;37.790;2024-03-02T01:14:36;10.14;36.62
75190;HTU21D;69198;44.694;37.790;2024-03-02T01:15:37;10.12;36.65
75190;HTU21D;69198;44.694;37.790;2024-03-02T01:16:38;10.10;36.66
75190;HTU21D;69198;44.694;37.790;2024-03-02T01:17:39;10.09;36.68
75190;HTU21D;69198;44.694;37.790;2024-03-02T01:18:40;10.10;36.64
75190;HTU21D;69198;44.694;37.790;2024-03-02T01:19:45;10.10;36.64
75190;HTU21D;69198;44.694;37.790;2024-03-02T01:20:46;10.08;36.68
75190;HTU21D;69198;44.694;37.790;2024-03-02T01:21:47;10.08;36.63
75190;HTU21D;69198;44.694;37.790;2024-03-02T01:22:48;10.07;36.67
75190;HTU21D;69198;44.694;37.790;2024-03-02T01:23:49;10.05;36.69
75190;HTU21D;69198;44.694;37.790;2024-03-02T01:24:50;10.04;36.69
75190;HTU21D;69198;44.694;37.790;2024-03-02T01:25:51;10.01;36.72
75190;HTU21D;69198;44.694;37.790;2024-03-02T01:26:52;9.98;36.73
75190;HTU21D;69198;44.694;37.790;2024-03-02T01:27:53;9.98;36.71
75190;HTU21D;69198;44.694;37.790;2024-03-02T01:28:54;9.96;36.75
75190;HTU21D;69198;44.694;37.790;2024-03-02T01:29:55;9.95;36.69
75190;HTU21D;69198;44.694;37.790;2024-03-02T01:30:56;9.95;36.68
75190;HTU21D;69198;44.694;37.790;2024-03-02T01:31:57;9.95;36.65
75190;HTU21D;69198;44.694;37.790;2024-03-02T01:32:58;9.93;36.67
75190;HTU21D;69198;44.694;37.790;2024-03-02T01:34:00;9.94;36.69
75190;HTU21D;69198;44.694;37.790;2024-03-02T01:35:01;9.93;36.72
75190;HTU21D;69198;44.694;37.790;2024-03-02T01:36:03;9.92;36.70
75190;HTU21D;69198;44.694;37.790;2024-03-02T01:37:04;9.89;36.70
75190;HTU21D;69198;44.694;37.790;2024-03-02T01:38:05;9.86;36.72
75190;HTU21D;69198;44.694;37.790;2024-03-02T01:39:07;9.86;36.71
75190;HTU21D;69198;44.694;37.790;2024-03-02T01:40:10;9.85;36.76
75190;HTU21D;69198;44.694;37.790;2024-03-02T01:41:11;9.82;36.76
75190;HTU21D;69198;44.694;37.790;2024-03-02T01:42:12;9.82;36.78
75190;HTU21D;69198;44.694;37.790;2024-03-02T01:43:14;9.79;36.81
75190;HTU21D;69198;44.694;37.790;2024-03-02T01:44:15;9.78;36.80
75190;HTU21D;69198;44.694;37.790;2024-03-02T01:45:16;9.79;36.82
75190;HTU21D;69198;44.694;37.790;2024-03-02T01:46:17;9.79;36.82
75190;HTU21D;69198;44.694;37.790;2024-03-02T01:47:18;9.79;36.81
75190;HTU21D;69198;44.694;37.790;2024-03-02T01:48:19;9.79;36.82
75190;HTU21D;69198;44.694;37.790;2024-03-02T01:49:20;9.79;36.79
75190;HTU21D;69198;44.694;37.790;2024-03-02T01:50:27;9.81;36.79
75190;HTU21D;69198;44.694;37.790;2024-03-02T01:51:29;9.81;36.79
75190;HTU21D;69198;44.694;37.790;2024-03-02T01:52:30;9.82;36.73
75190;HTU21D;69198;44.694;37.790;2024-03-02T01:53:31;9.84;36.71
75190;HTU21D;69198;44.694;37.790;2024-03-02T01:54:32;9.83;36.70
75190;HTU21D;69198;44.694;37.790;2024-03-02T01:55:33;9.84;36.67
75190;HTU21D;69198;44.694;37.790;2024-03-02T01:56:35;9.84;36.63
75190;HTU21D;69198;44.694;37.790;2024-03-02T01:57:36;9.83;36.56
75190;HTU21D;69198;44.694;37.790;2024-03-02T01:58:37;9.83;36.53
75190;HTU21D;69198;44.694;37.790;2024-03-02T01:59:39;9.84;36.47
75190;HTU21D;69198;44.694;37.790;2024-03-02T02:00:40;9.84;36.46
75190;HTU21D;69198;44.694;37.790;2024-03-02T02:01:41;9.84;36.39
75190;HTU21D;69198;44.694;37.790;2024-03-02T02:02:42;9.84;36.34
75190;HTU21D;69198;44.694;37.790;2024-03-02T02:03:43;9.83;36.30
75190;HTU21D;69198;44.694;37.790;2024-03-02T02:04:44;9.81;36.29
75190;HTU21D;69198;44.694;37.790;2024-03-02T02:05:45;9.79;36.28
75190;HTU21D;69198;44.694;37.790;2024-03-02T02:06:48;9.78;36.30
75190;HTU21D;69198;44.694;37.790;2024-03-02T02:07:49;9.75;36.27
75190;HTU21D;69198;44.694;37.790;2024-03-02T02:08:50;9.75;36.30
75190;HTU21D;69198;44.694;37.790;2024-03-02T02:09:51;9.74;36.21
75190;HTU21D;69198;44.694;37.790;2024-03-02T02:10:52;9.74;36.15
75190;HTU21D;69198;44.694;37.790;2024-03-02T02:11:53;9.77;36.01
75190;HTU21D;69198;44.694;37.790;2024-03-02T02:12:55;9.77;36.03
75190;HTU21D;69198;44.694;37.790;2024-03-02T02:13:56;9.76;35.99
75190;HTU21D;69198;44.694;37.790;2024-03-02T02:14:57;9.76;35.96
75190;HTU21D;69198;44.694;37.790;2024-03-02T02:16:08;9.76;35.92
75190;HTU21D;69198;44.694;37.790;2024-03-02T02:17:09;9.76;35.89
75190;HTU21D;69198;44.694;37.790;2024-03-02T02:18:11;9.76;35.89
75190;HTU21D;69198;44.694;37.790;2024-03-02T02:19:12;9.75;35.89
75190;HTU21D;69198;44.694;37.790;2024-03-02T02:20:13;9.74;35.78
75190;HTU21D;69198;44.694;37.790;2024-03-02T02:21:14;9.72;35.83
75190;HTU21D;69198;44.694;37.790;2024-03-02T02:22:15;9.69;35.83
75190;HTU21D;69198;44.694;37.790;2024-03-02T02:23:16;9.68;35.82
75190;HTU21D;69198;44.694;37.790;2024-03-02T02:24:19;9.66;35.84
75190;HTU21D;69198;44.694;37.790;2024-03-02T02:25:20;9.64;35.82
75190;HTU21D;69198;44.694;37.790;2024-03-02T02:26:21;9.62;35.89
75190;HTU21D;69198;44.694;37.790;2024-03-02T02:27:22;9.62;35.87
75190;HTU21D;69198;44.694;37.790;2024-03-02T02:28:23;9.59;35.85
75190;HTU21D;69198;44.694;37.790;2024-03-02T02:29:24;9.56;35.92
75190;HTU21D;69198;44.694;37.790;2024-03-02T02:30:27;9.54;35.87
75190;HTU21D;69198;44.694;37.790;2024-03-02T02:31:39;9.57;35.88
75190;HTU21D;69198;44.694;37.790;2024-03-02T02:32:41;9.54;35.82
75190;HTU21D;69198;44.694;37.790;2024-03-02T02:33:42;9.56;35.79
75190;HTU21D;69198;44.694;37.790;2024-03-02T02:34:44;9.56;35.73
75190;HTU21D;69198;44.694;37.790;2024-03-02T02:35:45;9.55;35.70
75190;HTU21D;69198;44.694;37.790;2024-03-02T02:36:46;9.56;35.74
75190;HTU21D;69198;44.694;37.790;2024-03-02T02:37:48;9.54;35.66
75190;HTU21D;69198;44.694;37.790;2024-03-02T02:38:50;9.56;35.69
75190;HTU21D;69198;44.694;37.790;2024-03-02T02:39:51;9.56;35.63
75190;HTU21D;69198;44.694;37.790;2024-03-02T02:40:52;9.56;35.63
75190;HTU21D;69198;44.694;37.790;2024-03-02T02:41:53;9.57;35.63
75190;HTU21D;69198;44.694;37.790;2024-03-02T02:42:55;9.57;35.63
75190;HTU21D;69198;44.694;37.790;2024-03-02T02:43:56;9.56;35.61
75190;HTU21D;69198;44.694;37.790;2024-03-02T02:44:57;9.56;35.61
75190;HTU21D;69198;44.694;37.790;2024-03-02T02:45:58;9.59;35.58
75190;HTU21D;69198;44.694;37.790;2024-03-02T02:46:59;9.60;35.50
75190;HTU21D;69198;44.694;37.790;2024-03-02T02:48:00;9.59;35.49
75190;HTU21D;69198;44.694;37.790;2024-03-02T02:49:03;9.60;35.40
75190;HTU21D;69198;44.694;37.790;2024-03-02T02:50:04;9.61;35.34
75190;HTU21D;69198;44.694;37.790;2024-03-02T02:51:05;9.63;35.31
75190;HTU21D;69198;44.694;37.790;2024-03-02T02:52:06;9.64;35.22
75190;HTU21D;69198;44.694;37.790;2024-03-02T02:53:07;9.64;35.18
75190;HTU21D;69198;44.694;37.790;2024-03-02T02:54:10;9.61;35.29
75190;HTU21D;69198;44.694;37.790;2024-03-02T02:55:13;9.62;35.34
75190;HTU21D;69198;44.694;37.790;2024-03-02T02:56:14;9.62;35.35
75190;HTU21D;69198;44.694;37.790;2024-03-02T02:57:15;9.61;35.45
75190;HTU21D;69198;44.694;37.790;2024-03-02T02:58:16;9.56;35.62
75190;HTU21D;69198;44.694;37.790;2024-03-02T02:59:17;9.56;35.67
75190;HTU21D;69198;44.694;37.790;2024-03-02T03:00:18;9.52;35.77
75190;HTU21D;69198;44.694;37.790;2024-03-02T03:01:20;9.51;35.83
75190;HTU21D;69198;44.694;37.790;2024-03-02T03:02:21;9.50;35.91
75190;HTU21D;69198;44.694;37.790;2024-03-02T03:03:22;9.48;35.96
75190;HTU21D;69198;44.694;37.790;2024-03-02T03:04:23;9.45;36.05
75190;HTU21D;69198;44.694;37.790;2024-03-02T03:05:24;9.42;36.08
75190;HTU21D;69198;44.694;37.790;2024-03-02T03:06:25;9.39;36.14
75190;HTU21D;69198;44.694;37.790;2024-03-02T03:07:26;9.39;36.12
75190;HTU21D;69198;44.694;37.790;2024-03-02T03:08:27;9.37;36.17
75190;HTU21D;69198;44.694;37.790;2024-03-02T03:09:28;9.36;36.23
75190;HTU21D;69198;44.694;37.790;2024-03-02T03:10:29;9.34;36.30
75190;HTU21D;69198;44.694;37.790;2024-03-02T03:11:30;9.32;36.39
75190;HTU21D;69198;44.694;37.790;2024-03-02T03:12:32;9.30;36.50
75190;HTU21D;69198;44.694;37.790;2024-03-02T03:13:34;9.29;36.56
75190;HTU21D;69198;44.694;37.790;2024-03-02T03:14:35;9.27;36.62
75190;HTU21D;69198;44.694;37.790;2024-03-02T03:15:36;9.26;36.65
75190;HTU21D;69198;44.694;37.790;2024-03-02T03:16:38;9.24;36.71
75190;HTU21D;69198;44.694;37.790;2024-03-02T03:17:39;9.24;36.70
75190;HTU21D;69198;44.694;37.790;2024-03-02T03:18:41;9.22;36.77
75190;HTU21D;69198;44.694;37.790;2024-03-02T03:19:42;9.20;36.79
75190;HTU21D;69198;44.694;37.790;2024-03-02T03:20:43;9.20;36.79
75190;HTU21D;69198;44.694;37.790;2024-03-02T03:21:44;9.19;36.85
75190;HTU21D;69198;44.694;37.790;2024-03-02T03:22:45;9.19;36.85
75190;HTU21D;69198;44.694;37.790;2024-03-02T03:23:46;9.18;36.93
75190;HTU21D;69198;44.694;37.790;2024-03-02T03:24:47;9.20;36.95
75190;HTU21D;69198;44.694;37.790;2024-03-02T03:25:48;9.19;37.01
75190;HTU21D;69198;44.694;37.790;2024-03-02T03:26:49;9.19;37.07
75190;HTU21D;69198;44.694;37.790;2024-03-02T03:27:49;9.18;37.17
75190;HTU21D;69198;44.694;37.790;2024-03-02T03:28:53;9.18;37.26
75190;HTU21D;69198;44.694;37.790;2024-03-02T03:29:54;9.19;37.30
75190;HTU21D;69198;44.694;37.790;2024-03-02T03:30:55;9.18;37.39
75190;HTU21D;69198;44.694;37.790;2024-03-02T03:31:56;9.17;37.42
75190;HTU21D;69198;44.694;37.790;2024-03-02T03:32:56;9.18;37.44
75190;HTU21D;69198;44.694;37.790;2024-03-02T03:33:57;9.19;37.44
75190;HTU21D;69198;44.694;37.790;2024-03-02T03:34:59;9.21;37.43
75190;HTU21D;69198;44.694;37.790;2024-03-02T03:36:00;9.19;37.48
75190;HTU21D;69198;44.694;37.790;2024-03-02T03:37:04;9.19;37.50
75190;HTU21D;69198;44.694;37.790;2024-03-02T03:38:04;9.21;37.49
75190;HTU21D;69198;44.694;37.790;2024-03-02T03:39:06;9.23;37.47
75190;HTU21D;69198;44.694;37.790;2024-03-02T03:40:07;9.24;37.54
75190;HTU21D;69198;44.694;37.790;2024-03-02T03:41:10;9.22;37.59
75190;HTU21D;69198;44.694;37.790;2024-03-02T03:42:11;9.23;37.64
75190;HTU21D;69198;44.694;37.790;2024-03-02T03:43:13;9.23;37.68
75190;HTU21D;69198;44.694;37.790;2024-03-02T03:44:14;9.23;37.72
75190;HTU21D;69198;44.694;37.790;2024-03-02T03:45:15;9.24;37.78
75190;HTU21D;69198;44.694;37.790;2024-03-02T03:46:16;9.25;37.82
75190;HTU21D;69198;44.694;37.790;2024-03-02T03:47:17;9.26;37.85
75190;HTU21D;69198;44.694;37.790;2024-03-02T03:48:18;9.25;37.89
75190;HTU21D;69198;44.694;37.790;2024-03-02T03:49:19;9.27;37.91
75190;HTU21D;69198;44.694;37.790;2024-03-02T03:50:20;9.27;37.94
75190;HTU21D;69198;44.694;37.790;2024-03-02T03:51:21;9.29;37.96
75190;HTU21D;69198;44.694;37.790;2024-03-02T03:52:25;9.26;38.00
75190;HTU21D;69198;44.694;37.790;2024-03-02T03:53:26;9.26;38.04
75190;HTU21D;69198;44.694;37.790;2024-03-02T03:54:27;9.26;38.09
75190;HTU21D;69198;44.694;37.790;2024-03-02T03:55:29;9.26;38.09
75190;HTU21D;69198;44.694;37.790;2024-03-02T03:56:30;9.25;38.14
75190;HTU21D;69198;44.694;37.790;2024-03-02T03:57:31;9.25;38.20
75190;HTU21D;69198;44.694;37.790;2024-03-02T03:58:32;9.24;38.23
75190;HTU21D;69198;44.694;37.790;2024-03-02T03:59:33;9.22;38.29
75190;HTU21D;69198;44.694;37.790;2024-03-02T04:00:34;9.21;38.33
75190;HTU21D;69198;44.694;37.790;2024-03-02T04:01:36;9.23;38.39
75190;HTU21D;69198;44.694;37.790;2024-03-02T04:02:37;9.20;38.44
75190;HTU21D;69198;44.694;37.790;2024-03-02T04:03:38;9.19;38.47
75190;HTU21D;69198;44.694;37.790;2024-03-02T04:04:39;9.22;38.49
75190;HTU21D;69198;44.694;37.790;2024-03-02T04:05:40;9.21;38.58
75190;HTU21D;69198;44.694;37.790;2024-03-02T04:06:41;9.22;38.57
75190;HTU21D;69198;44.694;37.790;2024-03-02T04:07:42;9.20;38.64
75190;HTU21D;69198;44.694;37.790;2024-03-02T04:08:43;9.22;38.68
75190;HTU21D;69198;44.694;37.790;2024-03-02T04:09:44;9.21;38.73
75190;HTU21D;69198;44.694;37.790;2024-03-02T04:10:45;9.21;38.76
75190;HTU21D;69198;44.694;37.790;2024-03-02T04:11:47;9.21;38.79
75190;HTU21D;69198;44.694;37.790;2024-03-02T04:12:49;9.22;38.82
75190;HTU21D;69198;44.694;37.790;2024-03-02T04:13:51;9.23;38.83
75190;HTU21D;69198;44.694;37.790;2024-03-02T04:14:52;9.25;38.82
75190;HTU21D;69198;44.694;37.790;2024-03-02T04:15:53;9.26;38.84
75190;HTU21D;69198;44.694;37.790;2024-03-02T04:16:54;9.26;38.86
75190;HTU21D;69198;44.694;37.790;2024-03-02T04:17:55;9.26;38.87
75190;HTU21D;69198;44.694;37.790;2024-03-02T04:18:56;9.26;38.91
75190;HTU21D;69198;44.694;37.790;2024-03-02T04:19:57;9.30;38.91
75190;HTU21D;69198;44.694;37.790;2024-03-02T04:20:59;9.30;38.92
75190;HTU21D;69198;44.694;37.790;2024-03-02T04:22:00;9.31;38.91
75190;HTU21D;69198;44.694;37.790;2024-03-02T04:23:01;9.33;38.90
75190;HTU21D;69198;44.694;37.790;2024-03-02T04:24:03;9.35;38.88
75190;HTU21D;69198;44.694;37.790;2024-03-02T04:25:04;9.38;38.83
75190;HTU21D;69198;44.694;37.790;2024-03-02T04:26:05;9.39;38.83
75190;HTU21D;69198;44.694;37.790;2024-03-02T04:27:06;9.41;38.82
75190;HTU21D;69198;44.694;37.790;2024-03-02T04:28:07;9.44;38.82
75190;HTU21D;69198;44.694;37.790;2024-03-02T04:29:08;9.49;38.72
75190;HTU21D;69198;44.694;37.790;2024-03-02T04:30:10;9.52;38.71
75190;HTU21D;69198;44.694;37.790;2024-03-02T04:31:11;9.57;38.64
75190;HTU21D;69198;44.694;37.790;2024-03-02T04:32:12;9.60;38.63
75190;HTU21D;69198;44.694;37.790;2024-03-02T04:33:17;9.65;38.54
75190;HTU21D;69198;44.694;37.790;2024-03-02T04:34:18;9.72;38.49
75190;HTU21D;69198;44.694;37.790;2024-03-02T04:35:19;9.79;38.44
75190;HTU21D;69198;44.694;37.790;2024-03-02T04:36:20;9.84;38.37
75190;HTU21D;69198;44.694;37.790;2024-03-02T04:37:21;9.91;38.25
75190;HTU21D;69198;44.694;37.790;2024-03-02T04:38:22;9.94;38.18
75190;HTU21D;69198;44.694;37.790;2024-03-02T04:39:23;9.99;38.07
75190;HTU21D;69198;44.694;37.790;2024-03-02T04:40:25;10.04;38.02
75190;HTU21D;69198;44.694;37.790;2024-03-02T04:41:26;10.05;37.98
75190;HTU21D;69198;44.694;37.790;2024-03-02T04:42:29;10.08;37.96
75190;HTU21D;69198;44.694;37.790;2024-03-02T04:43:30;10.10;37.92
75190;HTU21D;69198;44.694;37.790;2024-03-02T04:44:32;10.14;37.83
75190;HTU21D;69198;44.694;37.790;2024-03-02T04:45:33;10.16;37.76
75190;HTU21D;69198;44.694;37.790;2024-03-02T04:46:34;10.21;37.76
75190;HTU21D;69198;44.694;37.790;2024-03-02T04:47:35;10.22;37.74
75190;HTU21D;69198;44.694;37.790;2024-03-02T04:48:36;10.26;37.71
75190;HTU21D;69198;44.694;37.790;2024-03-02T04:49:37;10.29;37.60
75190;HTU21D;69198;44.694;37.790;2024-03-02T04:50:38;10.31;37.55
75190;HTU21D;69198;44.694;37.790;2024-03-02T04:51:39;10.35;37.46
75190;HTU21D;69198;44.694;37.790;2024-03-02T04:52:40;10.38;37.42
75190;HTU21D;69198;44.694;37.790;2024-03-02T04:53:43;10.42;37.30
75190;HTU21D;69198;44.694;37.790;2024-03-02T04:54:44;10.46;37.22
75190;HTU21D;69198;44.694;37.790;2024-03-02T04:56:03;10.48;37.24
75190;HTU21D;69198;44.694;37.790;2024-03-02T04:57:28;10.53;37.24
75190;HTU21D;69198;44.694;37.790;2024-03-02T04:58:30;10.57;37.16
75190;HTU21D;69198;44.694;37.790;2024-03-02T04:59:31;10.62;37.10
75190;HTU21D;69198;44.694;37.790;2024-03-02T05:00:35;10.66;37.01
75190;HTU21D;69198;44.694;37.790;2024-03-02T05:01:36;10.69;36.95
75190;HTU21D;69198;44.694;37.790;2024-03-02T05:02:37;10.72;36.91
75190;HTU21D;69198;44.694;37.790;2024-03-02T05:03:38;10.77;36.85
75190;HTU21D;69198;44.694;37.790;2024-03-02T05:04:39;10.80;36.77
75190;HTU21D;69198;44.694;37.790;2024-03-02T05:05:40;10.83;36.72
75190;HTU21D;69198;44.694;37.790;2024-03-02T05:06:41;10.87;36.65
75190;HTU21D;69198;44.694;37.790;2024-03-02T05:07:43;10.92;36.61
75190;HTU21D;69198;44.694;37.790;2024-03-02T05:08:44;10.94;36.68
75190;HTU21D;69198;44.694;37.790;2024-03-02T05:09:45;10.97;36.51
75190;HTU21D;69198;44.694;37.790;2024-03-02T05:10:46;11.02;36.47
75190;HTU21D;69198;44.694;37.790;2024-03-02T05:11:47;11.07;36.35
75190;HTU21D;69198;44.694;37.790;2024-03-02T05:13:11;11.11;36.31
75190;HTU21D;69198;44.694;37.790;2024-03-02T05:14:12;11.15;36.24
75190;HTU21D;69198;44.694;37.790;2024-03-02T05:15:14;11.20;36.23
75190;HTU21D;69198;44.694;37.790;2024-03-02T05:16:15;11.26;36.19
75190;HTU21D;69198;44.694;37.790;2024-03-02T05:17:16;11.33;36.08
75190;HTU21D;69198;44.694;37.790;2024-03-02T05:18:18;11.42;35.89
75190;HTU21D;69198;44.694;37.790;2024-03-02T05:19:19;11.51;35.79
75190;HTU21D;69198;44.694;37.790;2024-03-02T05:20:20;11.61;35.69
75190;HTU21D;69198;44.694;37.790;2024-03-02T05:21:21;11.75;35.54
75190;HTU21D;69198;44.694;37.790;2024-03-02T05:22:23;11.93;35.34
75190;HTU21D;69198;44.694;37.790;2024-03-02T05:23:23;12.13;34.97
75190;HTU21D;69198;44.694;37.790;2024-03-02T05:24:25;12.33;34.83
75190;HTU21D;69198;44.694;37.790;2024-03-02T05:25:28;12.56;34.55
75190;HTU21D;69198;44.694;37.790;2024-03-02T05:26:29;12.74;34.28
75190;HTU21D;69198;44.694;37.790;2024-03-02T05:27:31;12.86;33.89
75190;HTU21D;69198;44.694;37.790;2024-03-02T05:28:33;12.93;33.89
75190;HTU21D;69198;44.694;37.790;2024-03-02T05:29:34;12.99;33.83
75190;HTU21D;69198;44.694;37.790;2024-03-02T05:30:35;13.07;33.62
75190;HTU21D;69198;44.694;37.790;2024-03-02T05:31:36;13.16;33.45
75190;HTU21D;69198;44.694;37.790;2024-03-02T05:32:37;13.26;33.28
75190;HTU21D;69198;44.694;37.790;2024-03-02T05:33:38;13.36;33.09
75190;HTU21D;69198;44.694;37.790;2024-03-02T05:34:39;13.46;32.69
75190;HTU21D;69198;44.694;37.790;2024-03-02T05:35:40;13.51;32.66
75190;HTU21D;69198;44.694;37.790;2024-03-02T05:36:41;13.58;32.77
75190;HTU21D;69198;44.694;37.790;2024-03-02T05:37:42;13.65;32.45
75190;HTU21D;69198;44.694;37.790;2024-03-02T05:38:43;13.71;32.32
75190;HTU21D;69198;44.694;37.790;2024-03-02T05:39:44;13.78;32.22
75190;HTU21D;69198;44.694;37.790;2024-03-02T05:40:45;13.83;32.21
75190;HTU21D;69198;44.694;37.790;2024-03-02T05:41:46;13.86;32.07
75190;HTU21D;69198;44.694;37.790;2024-03-02T05:42:47;13.88;31.93
75190;HTU21D;69198;44.694;37.790;2024-03-02T05:43:48;13.86;32.06
75190;HTU21D;69198;44.694;37.790;2024-03-02T05:44:50;13.90;31.86
75190;HTU21D;69198;44.694;37.790;2024-03-02T05:45:51;13.84;31.89
75190;HTU21D;69198;44.694;37.790;2024-03-02T05:46:52;13.82;31.82
75190;HTU21D;69198;44.694;37.790;2024-03-02T05:47:53;13.76;31.83
75190;HTU21D;69198;44.694;37.790;2024-03-02T05:48:54;13.75;31.80
75190;HTU21D;69198;44.694;37.790;2024-03-02T05:49:55;13.73;31.88
75190;HTU21D;69198;44.694;37.790;2024-03-02T05:50:56;13.77;31.90
75190;HTU21D;69198;44.694;37.790;2024-03-02T05:51:57;13.85;31.89
75190;HTU21D;69198;44.694;37.790;2024-03-02T05:52:58;13.98;31.77
75190;HTU21D;69198;44.694;37.790;2024-03-02T05:53:59;14.19;31.52
75190;HTU21D;69198;44.694;37.790;2024-03-02T05:55:00;14.39;31.28
75190;HTU21D;69198;44.694;37.790;2024-03-02T05:56:01;14.60;31.03
75190;HTU21D;69198;44.694;37.790;2024-03-02T05:57:02;14.78;30.75
75190;HTU21D;69198;44.694;37.790;2024-03-02T05:58:17;14.85;30.71
75190;HTU21D;69198;44.694;37.790;2024-03-02T05:59:32;14.82;30.56
75190;HTU21D;69198;44.694;37.790;2024-03-02T06:00:35;14.74;30.55
75190;HTU21D;69198;44.694;37.790;2024-03-02T06:01:36;14.69;30.74
75190;HTU21D;69198;44.694;37.790;2024-03-02T06:02:40;14.63;30.66
75190;HTU21D;69198;44.694;37.790;2024-03-02T06:03:41;14.59;30.74
75190;HTU21D;69198;44.694;37.790;2024-03-02T06:04:42;14.62;30.69
75190;HTU21D;69198;44.694;37.790;2024-03-02T06:05:44;14.62;30.54
75190;HTU21D;69198;44.694;37.790;2024-03-02T06:06:45;14.60;30.44
75190;HTU21D;69198;44.694;37.790;2024-03-02T06:07:46;14.58;30.40
75190;HTU21D;69198;44.694;37.790;2024-03-02T06:08:47;14.56;30.51
75190;HTU21D;69198;44.694;37.790;2024-03-02T06:09:48;14.54;30.45
75190;HTU21D;69198;44.694;37.790;2024-03-02T06:10:51;14.56;30.61
75190;HTU21D;69198;44.694;37.790;2024-03-02T06:11:53;14.63;30.54
75190;HTU21D;69198;44.694;37.790;2024-03-02T06:12:54;14.74;30.52
75190;HTU21D;69198;44.694;37.790;2024-03-02T06:13:55;14.86;30.45
75190;HTU21D;69198;44.694;37.790;2024-03-02T06:14:56;14.98;30.25
75190;HTU21D;69198;44.694;37.790;2024-03-02T06:15:57;15.08;30.15
75190;HTU21D;69198;44.694;37.790;2024-03-02T06:16:58;15.14;30.06
75190;HTU21D;69198;44.694;37.790;2024-03-02T06:18:01;15.21;30.00
75190;HTU21D;69198;44.694;37.790;2024-03-02T06:19:02;15.25;29.87
75190;HTU21D;69198;44.694;37.790;2024-03-02T06:20:03;15.27;29.77
75190;HTU21D;69198;44.694;37.790;2024-03-02T06:21:04;15.25;29.73
75190;HTU21D;69198;44.694;37.790;2024-03-02T06:22:05;15.19;29.78
75190;HTU21D;69198;44.694;37.790;2024-03-02T06:23:06;15.17;29.78
75190;HTU21D;69198;44.694;37.790;2024-03-02T06:24:07;15.14;29.80